createdAt,value
2017-07-01T00:00:05.603Z,2.10
2017-07-01T00:02:31.902Z,1.70
2017-07-01T00:04:58.218Z,1.55
2017-07-01T00:07:24.518Z,1.45
2017-07-01T00:09:50.877Z,1.33
2017-07-01T00:12:17.169Z,1.50
2017-07-01T00:14:43.445Z,1.55
2017-07-01T00:17:09.729Z,1.58
2017-07-01T00:19:36.379Z,2.00
2017-07-01T00:22:03.044Z,1.75
2017-07-01T00:24:29.373Z,1.55
2017-07-01T00:26:55.686Z,0.98
2017-07-01T00:29:22.018Z,0.90
2017-07-01T00:31:48.341Z,0.90
2017-07-01T00:34:14.636Z,0.90
2017-07-01T00:36:40.965Z,1.02
2017-07-01T00:39:07.256Z,0.90
2017-07-01T00:41:33.577Z,0.85
2017-07-01T00:43:59.866Z,1.15
2017-07-01T00:46:26.194Z,0.80
2017-07-01T00:48:52.510Z,1.00
2017-07-01T00:51:18.779Z,0.80
2017-07-01T00:53:45.481Z,1.00
2017-07-01T00:56:11.742Z,1.08
2017-07-01T00:58:38.047Z,0.90
2017-07-01T01:01:04.342Z,1.00
2017-07-01T01:03:30.658Z,1.00
2017-07-01T01:05:57.413Z,0.90
2017-07-01T01:08:24.499Z,1.25
2017-07-01T01:10:50.829Z,1.10
2017-07-01T01:13:17.159Z,0.90
2017-07-01T01:15:43.439Z,0.82
2017-07-01T01:18:09.755Z,0.90
2017-07-01T01:20:36.044Z,0.80
2017-07-01T01:23:02.608Z,0.90
2017-07-01T01:25:29.274Z,1.15
2017-07-01T01:27:55.565Z,0.90
2017-07-01T01:30:21.880Z,1.00
2017-07-01T01:32:48.174Z,1.00
2017-07-01T01:35:14.500Z,0.77
2017-07-01T01:37:40.809Z,1.05
2017-07-01T01:40:07.732Z,0.80
2017-07-01T01:42:34.053Z,0.90
2017-07-01T01:45:01.835Z,1.17
2017-07-01T01:47:30.137Z,0.90
2017-07-01T01:49:56.440Z,1.27
2017-07-01T01:52:23.095Z,1.00
2017-07-01T01:54:49.991Z,1.27
2017-07-01T01:57:16.339Z,1.27
2017-07-01T01:59:42.625Z,1.02
2017-07-01T02:02:08.938Z,0.80
2017-07-01T02:04:35.258Z,0.90
2017-07-01T02:07:02.556Z,0.80
2017-07-01T02:09:28.855Z,1.10
2017-07-01T02:11:58.109Z,0.80
2017-07-01T02:14:24.450Z,0.90
2017-07-01T02:17:00.088Z,1.45
2017-07-01T02:19:26.775Z,1.10
2017-07-01T02:22:06.157Z,1.25
2017-07-01T02:24:32.449Z,0.80
2017-07-01T02:26:58.791Z,1.15
2017-07-01T02:29:25.104Z,0.90
2017-07-01T02:31:51.402Z,1.40
2017-07-01T02:34:20.755Z,1.33
2017-07-01T02:36:52.082Z,1.30
2017-07-01T02:39:38.132Z,1.60
2017-07-01T02:42:04.797Z,0.93
2017-07-01T02:44:31.077Z,1.48
2017-07-01T02:47:03.490Z,1.12
2017-07-01T02:49:35.760Z,0.98
2017-07-01T02:52:06.978Z,1.23
2017-07-01T02:54:53.001Z,1.62
2017-07-01T02:57:19.297Z,1.98
2017-07-01T02:59:46.504Z,2.10
2017-07-01T03:02:13.967Z,1.67
2017-07-01T03:04:40.251Z,1.30
2017-07-01T03:07:06.519Z,1.60
2017-07-01T03:09:42.766Z,1.55
2017-07-01T03:12:09.086Z,1.17
2017-07-01T03:14:35.392Z,1.17
2017-07-01T03:17:01.722Z,1.48
2017-07-01T03:19:28.824Z,1.35
2017-07-01T03:21:55.119Z,1.37
2017-07-01T03:24:21.425Z,1.42
2017-07-01T03:26:47.712Z,1.27
2017-07-01T03:29:22.916Z,1.90
2017-07-01T03:31:49.567Z,1.37
2017-07-01T03:34:15.865Z,1.30
2017-07-01T03:36:42.145Z,1.25
2017-07-01T03:39:20.607Z,1.60
2017-07-01T03:41:59.010Z,1.33
2017-07-01T03:44:36.168Z,1.48
2017-07-01T03:47:02.443Z,1.50
2017-07-01T03:49:31.699Z,1.58
2017-07-01T03:51:58.016Z,2.12
2017-07-01T03:54:51.231Z,1.65
2017-07-01T03:57:17.536Z,1.60
2017-07-01T03:59:44.243Z,1.40
2017-07-01T04:02:10.559Z,1.30
2017-07-01T04:04:40.678Z,1.12
2017-07-01T04:07:06.993Z,1.65
2017-07-01T04:09:33.287Z,1.65
2017-07-01T04:11:59.588Z,1.30
2017-07-01T04:14:25.876Z,1.75
2017-07-01T04:16:52.539Z,1.45
2017-07-01T04:19:20.651Z,1.33
2017-07-01T04:21:47.916Z,1.70
2017-07-01T04:24:14.284Z,1.60
2017-07-01T04:26:40.595Z,1.05
2017-07-01T04:29:06.892Z,1.40
2017-07-01T04:31:33.227Z,1.25
2017-07-01T04:33:59.512Z,1.05
2017-07-01T04:36:25.800Z,1.23
2017-07-01T04:38:52.108Z,1.08
2017-07-01T04:41:37.488Z,0.93
2017-07-01T04:44:04.689Z,0.75
2017-07-01T04:46:30.983Z,0.60
2017-07-01T04:49:00.056Z,0.70
2017-07-01T04:51:52.051Z,0.80
2017-07-01T04:54:22.060Z,0.65
2017-07-01T04:56:51.314Z,1.62
2017-07-01T04:59:17.641Z,0.82
2017-07-01T05:01:53.009Z,0.65
2017-07-01T05:04:39.268Z,0.70
2017-07-01T05:07:23.257Z,0.80
2017-07-01T05:10:08.436Z,0.95
2017-07-01T05:12:37.393Z,0.90
2017-07-01T05:15:10.758Z,0.70
2017-07-01T05:17:39.986Z,1.35
2017-07-01T05:20:21.460Z,0.70
2017-07-01T05:22:59.854Z,0.65
2017-07-01T05:25:38.210Z,0.70
2017-07-01T05:28:04.525Z,0.55
2017-07-01T05:30:39.156Z,1.20
2017-07-01T05:33:05.497Z,0.50
2017-07-01T05:35:33.743Z,0.90
2017-07-01T05:38:00.041Z,0.95
2017-07-01T05:40:26.323Z,0.95
2017-07-01T05:42:58.692Z,0.80
2017-07-01T05:45:24.972Z,0.68
2017-07-01T05:47:51.384Z,0.80
2017-07-01T05:50:17.717Z,0.90
2017-07-01T05:55:17.109Z,0.90
2017-07-01T05:57:43.464Z,0.85
2017-07-01T06:00:09.802Z,0.75
2017-07-01T06:02:36.107Z,0.80
2017-07-01T06:05:02.434Z,0.70
2017-07-01T06:07:28.741Z,0.80
2017-07-01T06:10:24.763Z,0.80
2017-07-01T06:12:51.946Z,1.10
2017-07-01T06:15:30.676Z,1.15
2017-07-01T06:17:56.975Z,0.90
2017-07-01T06:20:42.006Z,0.90
2017-07-01T06:23:33.176Z,1.10
2017-07-01T06:26:15.286Z,1.10
2017-07-01T06:28:47.927Z,1.10
2017-07-01T06:31:24.144Z,1.40
2017-07-01T06:33:50.445Z,1.00
2017-07-01T06:36:18.722Z,0.80
2017-07-01T06:39:03.910Z,0.60
2017-07-01T06:41:35.338Z,0.60
2017-07-01T06:44:23.324Z,0.70
2017-07-01T06:46:51.368Z,2.17
2017-07-01T06:49:17.721Z,0.75
2017-07-01T06:51:44.042Z,0.60
2017-07-01T06:54:12.092Z,0.70
2017-07-01T06:56:38.408Z,0.70
2017-07-01T06:59:04.708Z,0.70
2017-07-01T07:01:31.339Z,0.80
2017-07-01T07:03:57.624Z,0.70
2017-07-01T07:06:23.934Z,0.60
2017-07-01T07:08:50.256Z,0.95
2017-07-01T07:11:16.555Z,0.65
2017-07-01T07:13:42.853Z,0.68
2017-07-01T07:16:09.185Z,0.60
2017-07-01T07:18:35.523Z,0.70
2017-07-01T07:21:01.828Z,0.60
2017-07-01T07:23:28.659Z,0.70
2017-07-01T07:25:54.954Z,0.60
2017-07-01T07:28:21.257Z,0.60
2017-07-01T07:30:47.588Z,0.70
2017-07-01T07:33:13.884Z,0.50
2017-07-01T07:35:40.593Z,0.80
2017-07-01T07:38:06.906Z,0.80
2017-07-01T07:40:33.165Z,0.60
2017-07-01T07:42:59.464Z,0.62
2017-07-01T07:45:25.781Z,0.70
2017-07-01T07:47:52.045Z,0.52
2017-07-01T07:50:18.349Z,0.50
2017-07-01T07:52:44.918Z,0.50
2017-07-01T07:55:11.195Z,0.55
2017-07-01T07:57:37.480Z,0.68
2017-07-01T08:00:03.822Z,0.95
2017-07-01T08:02:30.105Z,0.70
2017-07-01T08:04:56.415Z,0.73
2017-07-01T08:07:22.705Z,0.70
2017-07-01T08:09:49.429Z,0.60
2017-07-01T08:12:15.707Z,0.75
2017-07-01T08:14:42.470Z,0.60
2017-07-01T08:17:08.788Z,1.25
2017-07-01T08:19:35.058Z,0.57
2017-07-01T08:22:01.365Z,0.60
2017-07-01T08:24:27.643Z,0.57
2017-07-01T08:26:53.945Z,0.65
2017-07-01T08:29:20.233Z,0.65
2017-07-01T08:31:46.521Z,0.60
2017-07-01T08:34:12.811Z,0.50
2017-07-01T08:36:39.072Z,0.50
2017-07-01T08:39:05.713Z,0.50
2017-07-01T08:41:31.982Z,0.57
2017-07-01T08:43:58.257Z,0.60
2017-07-01T08:46:24.550Z,0.60
2017-07-01T08:48:50.835Z,0.50
2017-07-01T08:51:17.528Z,0.60
2017-07-01T08:53:43.793Z,0.93
2017-07-01T08:56:10.383Z,0.80
2017-07-01T08:58:36.681Z,0.83
2017-07-01T09:01:02.960Z,0.63
2017-07-01T09:03:29.268Z,0.67
2017-07-01T09:05:55.564Z,0.70
2017-07-01T09:08:21.838Z,0.60
2017-07-01T09:10:48.142Z,0.90
2017-07-01T09:13:14.809Z,0.77
2017-07-01T09:15:41.093Z,0.60
2017-07-01T09:18:07.408Z,0.60
2017-07-01T09:20:33.687Z,0.83
2017-07-01T09:22:59.963Z,0.63
2017-07-01T09:25:26.260Z,1.07
2017-07-01T09:27:52.537Z,0.60
2017-07-01T09:30:18.833Z,0.80
2017-07-01T09:32:45.111Z,0.70
2017-07-01T09:35:11.388Z,0.60
2017-07-01T09:37:37.679Z,0.63
2017-07-01T09:40:04.328Z,0.77
2017-07-01T09:42:30.614Z,0.50
2017-07-01T09:44:56.888Z,0.70
2017-07-01T09:47:23.666Z,0.50
2017-07-01T09:49:49.992Z,0.83
2017-07-01T09:52:16.292Z,0.63
2017-07-01T09:54:42.604Z,0.83
2017-07-01T09:57:08.902Z,0.60
2017-07-01T09:59:35.623Z,0.67
2017-07-01T10:02:01.945Z,0.63
2017-07-01T10:04:28.232Z,1.27
2017-07-01T10:06:54.897Z,0.70
2017-07-01T10:09:21.166Z,0.73
2017-07-01T10:11:48.334Z,0.90
2017-07-01T10:14:14.980Z,0.63
2017-07-01T10:16:41.647Z,0.97
2017-07-01T10:19:07.923Z,0.60
2017-07-01T10:21:34.212Z,0.93
2017-07-01T10:24:00.490Z,0.57
2017-07-01T10:26:26.756Z,0.90
2017-07-01T10:28:53.432Z,0.93
2017-07-01T10:31:19.703Z,0.70
2017-07-01T10:33:45.969Z,0.70
2017-07-01T10:36:12.271Z,0.60
2017-07-01T10:38:38.866Z,1.00
2017-07-01T10:41:05.186Z,0.70
2017-07-01T10:43:31.481Z,0.70
2017-07-01T10:45:59.076Z,1.07
2017-07-01T10:48:25.354Z,0.70
2017-07-01T10:50:51.631Z,0.73
2017-07-01T10:53:17.937Z,0.50
2017-07-01T10:55:45.036Z,0.60
2017-07-01T10:58:11.731Z,0.70
2017-07-01T11:00:38.049Z,0.70
2017-07-01T11:03:04.827Z,0.70
2017-07-01T11:05:31.209Z,0.73
2017-07-01T11:07:57.502Z,0.90
2017-07-01T11:10:23.792Z,0.50
2017-07-01T11:12:50.089Z,0.70
2017-07-01T11:15:16.758Z,0.60
2017-07-01T11:17:43.043Z,0.80
2017-07-01T11:20:09.347Z,0.57
2017-07-01T11:22:35.618Z,0.60
2017-07-01T11:25:02.306Z,0.70
2017-07-01T11:27:28.597Z,0.80
2017-07-01T11:29:54.909Z,0.57
2017-07-01T11:32:21.466Z,0.67
2017-07-01T11:34:47.721Z,0.60
2017-07-01T11:37:14.000Z,0.60
2017-07-01T11:39:40.661Z,0.70
2017-07-01T11:42:06.945Z,0.60
2017-07-01T11:44:33.249Z,0.87
2017-07-01T11:47:00.698Z,0.70
2017-07-01T11:49:27.108Z,0.67
2017-07-01T11:51:53.417Z,0.83
2017-07-01T11:54:20.095Z,0.50
2017-07-01T11:56:46.392Z,0.70
2017-07-01T11:59:12.693Z,0.60
2017-07-01T12:01:39.419Z,0.70
2017-07-01T12:04:05.702Z,0.60
2017-07-01T12:06:31.988Z,0.70
2017-07-01T12:08:58.274Z,0.50
2017-07-01T12:11:24.589Z,0.90
2017-07-01T12:13:50.908Z,0.70
2017-07-01T12:16:18.433Z,0.60
2017-07-01T12:18:44.716Z,0.70
2017-07-01T12:21:11.008Z,0.97
2017-07-01T12:23:37.322Z,0.43
2017-07-01T12:26:03.609Z,0.70
2017-07-01T12:28:29.883Z,0.63
2017-07-01T12:30:56.176Z,0.60
2017-07-01T12:33:22.483Z,0.70
2017-07-01T12:35:48.801Z,0.47
2017-07-01T12:38:15.477Z,0.60
2017-07-01T12:40:42.197Z,0.70
2017-07-01T12:43:08.523Z,0.50
2017-07-01T12:45:34.796Z,0.70
2017-07-01T12:48:01.112Z,0.50
2017-07-01T12:50:27.404Z,0.67
2017-07-01T12:52:53.719Z,0.70
2017-07-01T12:55:19.994Z,0.60
2017-07-01T12:57:46.888Z,0.80
2017-07-01T13:00:13.168Z,0.50
2017-07-01T13:02:39.445Z,0.60
2017-07-01T13:05:05.704Z,0.60
2017-07-01T13:07:32.281Z,0.60
2017-07-01T13:09:58.564Z,0.50
2017-07-01T13:12:24.856Z,0.50
2017-07-01T13:14:51.165Z,0.40
2017-07-01T13:17:17.425Z,0.60
2017-07-01T13:19:43.796Z,0.40
2017-07-01T13:22:10.087Z,0.60
2017-07-01T13:24:36.646Z,0.53
2017-07-01T13:27:02.992Z,0.70
2017-07-01T13:29:29.286Z,0.60
2017-07-01T13:31:55.637Z,0.60
2017-07-01T13:34:21.913Z,0.60
2017-07-01T13:36:48.212Z,0.60
2017-07-01T13:39:14.522Z,0.53
2017-07-01T13:41:40.840Z,0.60
2017-07-01T13:44:07.524Z,0.50
2017-07-01T13:46:35.528Z,0.50
2017-07-01T13:49:01.836Z,0.67
2017-07-01T13:51:28.141Z,0.60
2017-07-01T13:53:54.529Z,0.70
2017-07-01T13:56:20.819Z,0.60
2017-07-01T13:58:47.542Z,0.63
2017-07-01T14:01:13.824Z,0.57
2017-07-01T14:03:40.151Z,0.63
2017-07-01T14:06:06.452Z,0.60
2017-07-01T14:08:32.734Z,0.60
2017-07-01T14:10:59.030Z,0.60
2017-07-01T14:13:25.370Z,0.60
2017-07-01T14:15:51.636Z,0.50
2017-07-01T14:18:17.932Z,0.50
2017-07-01T14:20:44.238Z,0.53
2017-07-01T14:23:10.527Z,0.70
2017-07-01T14:25:37.709Z,0.60
2017-07-01T14:28:03.972Z,0.50
2017-07-01T14:30:31.241Z,0.60
2017-07-01T14:32:57.562Z,1.33
2017-07-01T14:35:24.545Z,0.70
2017-07-01T14:37:50.816Z,0.70
2017-07-01T14:40:17.107Z,0.70
2017-07-01T14:42:43.394Z,0.60
2017-07-01T14:45:10.823Z,0.70
2017-07-01T14:47:37.092Z,0.70
2017-07-01T14:50:03.418Z,0.70
2017-07-01T14:52:31.035Z,0.50
2017-07-01T14:54:57.343Z,0.80
2017-07-01T14:57:24.462Z,0.60
2017-07-01T14:59:50.782Z,0.80
2017-07-01T15:02:17.093Z,0.70
2017-07-01T15:04:43.403Z,0.63
2017-07-01T15:07:09.708Z,0.97
2017-07-01T15:09:36.010Z,0.70
2017-07-01T15:12:02.292Z,0.87
2017-07-01T15:14:28.580Z,0.87
2017-07-01T15:16:55.235Z,1.10
2017-07-01T15:19:21.522Z,0.80
2017-07-01T15:21:47.802Z,0.70
2017-07-01T15:24:14.352Z,1.20
2017-07-01T15:26:40.622Z,0.80
2017-07-01T15:29:06.900Z,0.63
2017-07-01T15:31:33.854Z,0.60
2017-07-01T15:34:00.145Z,0.57
2017-07-01T15:36:27.418Z,0.70
2017-07-01T15:38:53.685Z,1.00
2017-07-01T15:41:19.976Z,0.50
2017-07-01T15:43:46.264Z,0.60
2017-07-01T15:46:12.572Z,0.57
2017-07-01T15:48:38.842Z,0.70
2017-07-01T15:51:05.143Z,0.60
2017-07-01T15:53:31.448Z,0.50
2017-07-01T15:55:57.723Z,0.57
2017-07-01T15:58:24.409Z,0.60
2017-07-01T16:01:02.934Z,0.50
2017-07-01T16:03:29.233Z,0.60
2017-07-01T16:05:55.487Z,0.60
2017-07-01T16:08:21.771Z,0.50
2017-07-01T16:10:48.412Z,0.70
2017-07-01T16:13:15.087Z,0.70
2017-07-01T16:15:41.923Z,0.50
2017-07-01T16:18:08.185Z,0.70
2017-07-01T16:20:34.468Z,1.30
2017-07-01T16:23:00.801Z,0.70
2017-07-01T16:25:27.071Z,0.60
2017-07-01T16:27:53.640Z,0.50
2017-07-01T16:30:20.285Z,0.70
2017-07-01T16:32:47.074Z,0.70
2017-07-01T16:35:14.375Z,0.70
2017-07-01T16:37:40.646Z,0.97
2017-07-01T16:40:07.962Z,0.60
2017-07-01T16:42:34.241Z,0.60
2017-07-01T16:45:00.549Z,0.70
2017-07-01T16:47:27.844Z,0.70
2017-07-01T16:49:55.111Z,0.60
2017-07-01T16:52:21.466Z,0.70
2017-07-01T16:54:47.746Z,0.70
2017-07-01T16:57:14.915Z,0.60
2017-07-01T16:59:43.119Z,0.87
2017-07-01T17:02:09.421Z,0.60
2017-07-01T17:04:38.248Z,0.60
2017-07-01T17:07:04.595Z,0.90
2017-07-01T17:09:32.447Z,0.77
2017-07-01T17:11:58.760Z,0.77
2017-07-01T17:14:26.281Z,0.80
2017-07-01T17:16:52.598Z,0.73
2017-07-01T17:19:19.896Z,1.00
2017-07-01T17:21:48.308Z,0.90
2017-07-01T17:24:17.625Z,4.60
2017-07-01T17:26:43.949Z,18.30
2017-07-01T17:29:10.959Z,1.03
2017-07-01T17:31:39.040Z,1.43
2017-07-01T17:34:05.869Z,2.30
2017-07-01T17:36:32.135Z,0.60
2017-07-01T17:38:58.460Z,0.70
2017-07-01T17:41:24.999Z,1.03
2017-07-01T17:43:51.349Z,25.00
2017-07-01T17:46:17.650Z,44.20
2017-07-01T17:48:44.317Z,25.47
2017-07-01T17:51:10.676Z,20.63
2017-07-01T17:53:37.005Z,3.17
2017-07-01T17:56:03.332Z,3.20
2017-07-01T17:58:29.971Z,2.33
2017-07-01T18:00:56.700Z,2.63
2017-07-01T18:03:23.020Z,1.57
2017-07-01T18:05:49.346Z,0.90
2017-07-01T18:08:15.667Z,0.70
2017-07-01T18:10:41.946Z,0.80
2017-07-01T18:13:08.645Z,1.30
2017-07-01T18:15:34.945Z,0.70
2017-07-01T18:18:02.281Z,1.10
2017-07-01T18:20:29.557Z,0.80
2017-07-01T18:22:55.853Z,0.80
2017-07-01T18:25:22.706Z,1.10
2017-07-01T18:27:49.065Z,1.10
2017-07-01T18:30:17.138Z,0.80
2017-07-01T18:32:43.494Z,0.80
2017-07-01T18:35:10.845Z,0.70
2017-07-01T18:37:41.070Z,1.03
2017-07-01T18:40:07.792Z,1.03
2017-07-01T18:42:34.485Z,0.90
2017-07-01T18:45:00.833Z,0.80
2017-07-01T18:47:28.466Z,0.80
2017-07-01T18:49:55.124Z,1.60
2017-07-01T18:52:21.826Z,1.60
2017-07-01T18:54:48.229Z,1.00
2017-07-01T18:57:14.550Z,0.77
2017-07-01T18:59:40.953Z,0.80
2017-07-01T19:02:07.226Z,1.03
2017-07-01T19:04:33.817Z,0.90
2017-07-01T19:07:00.108Z,0.83
2017-07-01T19:09:26.851Z,1.10
2017-07-01T19:11:53.765Z,1.00
2017-07-01T19:14:20.124Z,1.00
2017-07-01T19:16:46.452Z,0.90
2017-07-01T19:19:12.794Z,0.87
2017-07-01T19:21:39.115Z,1.00
2017-07-01T19:24:05.412Z,0.90
2017-07-01T19:26:32.174Z,0.87
2017-07-01T19:28:58.474Z,0.80
2017-07-01T19:31:24.775Z,0.80
2017-07-01T19:33:51.168Z,1.00
2017-07-01T19:36:17.521Z,0.93
2017-07-01T19:38:44.254Z,1.17
2017-07-01T19:41:10.569Z,0.83
2017-07-01T19:43:37.901Z,0.60
2017-07-01T19:46:04.245Z,1.00
2017-07-01T19:48:30.629Z,0.90
2017-07-01T19:50:57.003Z,1.50
2017-07-01T19:53:23.320Z,1.50
2017-07-01T19:55:49.614Z,2.00
2017-07-01T19:58:17.100Z,1.00
2017-07-01T20:00:43.411Z,1.13
2017-07-01T20:03:09.729Z,1.67
2017-07-01T20:05:36.453Z,1.13
2017-07-01T20:08:02.730Z,0.73
2017-07-01T20:10:29.102Z,1.20
2017-07-01T20:12:55.454Z,0.80
2017-07-01T20:15:22.154Z,1.20
2017-07-01T20:17:48.500Z,0.80
2017-07-01T20:20:14.773Z,0.93
2017-07-01T20:22:41.102Z,1.00
2017-07-01T20:25:07.443Z,0.68
2017-07-01T20:27:34.736Z,0.70
2017-07-01T20:30:01.120Z,1.00
2017-07-01T20:32:27.809Z,0.83
2017-07-01T20:34:54.125Z,1.05
2017-07-01T20:37:20.417Z,1.00
2017-07-01T20:39:46.801Z,0.98
2017-07-01T20:42:13.145Z,0.98
2017-07-01T20:44:39.538Z,1.10
2017-07-01T20:47:05.876Z,1.10
2017-07-01T20:49:32.631Z,0.93
2017-07-01T20:51:58.956Z,1.33
2017-07-01T20:54:25.323Z,1.00
2017-07-01T20:56:51.685Z,1.35
2017-07-01T20:59:18.016Z,0.98
2017-07-01T21:01:44.335Z,1.30
2017-07-01T21:04:10.644Z,1.00
2017-07-01T21:06:36.962Z,0.90
2017-07-01T21:09:03.674Z,1.00
2017-07-01T21:11:30.344Z,0.80
2017-07-01T21:13:56.747Z,1.00
2017-07-01T21:16:23.067Z,0.95
2017-07-01T21:18:49.457Z,1.10
2017-07-01T21:21:15.799Z,0.90
2017-07-01T21:23:42.112Z,1.02
2017-07-01T21:26:08.424Z,0.95
2017-07-01T21:28:35.116Z,1.08
2017-07-01T21:31:01.424Z,1.00
2017-07-01T21:33:28.538Z,1.37
2017-07-01T21:35:54.848Z,1.10
2017-07-01T21:38:21.150Z,1.27
2017-07-01T21:40:47.495Z,1.30
2017-07-01T21:43:14.711Z,0.85
2017-07-01T21:45:41.417Z,0.90
2017-07-01T21:48:07.723Z,1.00
2017-07-01T21:50:34.041Z,0.90
2017-07-01T21:53:00.374Z,1.20
2017-07-01T21:55:26.697Z,0.80
2017-07-01T21:57:53.014Z,1.00
2017-07-01T22:00:19.343Z,1.35
2017-07-01T22:02:45.915Z,1.20
2017-07-01T22:05:12.187Z,1.20
2017-07-01T22:07:38.868Z,1.30
2017-07-01T22:10:05.177Z,1.23
2017-07-01T22:12:31.489Z,1.05
2017-07-01T22:14:57.794Z,1.20
2017-07-01T22:17:24.079Z,1.40
2017-07-01T22:19:50.384Z,1.50
2017-07-01T22:22:16.776Z,1.60
2017-07-01T22:24:43.049Z,1.62
2017-07-01T22:27:09.742Z,1.45
2017-07-01T22:29:36.047Z,1.50
2017-07-01T22:32:02.350Z,1.67
2017-07-01T22:34:28.676Z,1.40
2017-07-01T22:36:54.947Z,1.30
2017-07-01T22:39:21.241Z,1.73
2017-07-01T22:41:47.538Z,1.55
2017-07-01T22:44:13.866Z,1.52
2017-07-01T22:46:40.175Z,1.20
2017-07-01T22:49:07.243Z,1.60
2017-07-01T22:51:33.539Z,1.67
2017-07-01T22:53:59.814Z,1.52
2017-07-01T22:56:26.488Z,1.77
2017-07-01T22:58:52.805Z,1.30
2017-07-01T23:01:19.210Z,1.30
2017-07-01T23:03:45.510Z,1.33
2017-07-01T23:06:11.803Z,1.55
2017-07-01T23:08:38.095Z,1.40
2017-07-01T23:11:04.391Z,1.30
2017-07-01T23:13:30.700Z,1.50
2017-07-01T23:15:56.990Z,1.60
2017-07-01T23:18:23.588Z,1.30
2017-07-01T23:20:49.888Z,1.67
2017-07-01T23:23:16.171Z,1.58
2017-07-01T23:25:42.459Z,1.50
2017-07-01T23:28:08.750Z,1.42
2017-07-01T23:30:35.033Z,1.40
2017-07-01T23:33:01.345Z,1.45
2017-07-01T23:35:27.984Z,1.90
2017-07-01T23:37:54.239Z,1.37
2017-07-01T23:40:20.528Z,1.60
2017-07-01T23:42:46.871Z,1.23
2017-07-01T23:45:13.173Z,1.35
2017-07-01T23:47:39.522Z,1.60
2017-07-01T23:50:05.787Z,1.70
2017-07-01T23:52:32.104Z,1.58
2017-07-01T23:54:58.437Z,1.42
2017-07-01T23:57:24.703Z,1.80
2017-07-01T23:59:51.019Z,1.40
